Suederoog — ZDHC8 — position and weather

sailwx.info

Track history (hours):
 
Tides and Currents Weather Stations Pressure Air Temp Water Temp Dewpoint Dewpoint Depression Visibility Wind Speed Wind Dir Waves Ship Positions

Suederoog

Last reported at 2014-Nov-26 10:31 UTC. Time now 2014-Nov-26 11:15 UTC.
Position N 60°25' E 026°55'.

Length 161 m; draft 9 m.

Type: Cargo ship. MMSI: 236300000.

Date/timePositionNaut miles runAvg speedWind from/ knotsBaromVisibWave heightAir tempDewpointWater temp
2014-Nov-26 10:31N 60°25' E 026°55'0 0.0
2014-Nov-26 09:31N 60°25' E 026°55'0 0.0
2014-Nov-26 08:31N 60°25' E 026°55'0 0.0
2014-Nov-26 07:33N 60°25' E 026°55'8 8.3
2014-Nov-26 06:34N 60°21' E 026°40'1313.2
2014-Nov-26 05:33N 60°11' E 026°23'1110.6
2014-Nov-26 04:33N 60°04' E 026°39'1111.2
2014-Nov-26 03:33N 59°60' E 026°59'9710.5
2014-Nov-25 18:19N 59°54' E 030°13'0 0.0
2014-Nov-25 11:33N 59°54' E 030°14'0 0.0
2014-Nov-25 10:28N 59°54' E 030°14'1 1.1
2014-Nov-25 09:30N 59°53' E 030°12'0 0.0
2014-Nov-25 06:09N 59°53' E 030°12'96 4.4
2014-Nov-24 08:11N 59°58' E 027°00'1218.5
2014-Nov-24 07:33N 59°59' E 026°37'2119.0
2014-Nov-24 06:27N 59°54' E 025°56'3819.0
2014-Nov-24 04:26N 59°45' E 024°42'2218.8
2014-Nov-24 03:15N 59°39' E 023°60'1319.1
2014-Nov-24 02:34N 59°35' E 023°35'37418.7
2014-Nov-23 06:32N 55°28' E 014°52'1918.7
2014-Nov-23 05:30N 55°15' E 014°27'1818.9
2014-Nov-23 04:34N 55°02' E 014°07'7217.9
2014-Nov-23 00:33N 54°31' E 012°15'6516.0
2014-Nov-22 20:30N 54°30' E 010°23'1112.1
2014-Nov-22 19:33N 54°22' E 010°10'3 3.2
2014-Nov-22 18:33N 54°22' E 010°04'5 5.1
2014-Nov-22 17:33N 54°20' E 009°56'5 4.8
2014-Nov-22 16:33N 54°22' E 009°48'6 6.3
2014-Nov-22 15:33N 54°17' E 009°40'5 5.0
2014-Nov-22 14:33N 54°13' E 009°36'3 2.7
2014-Nov-22 13:30N 54°12' E 009°32'9 4.7
2014-Nov-22 11:33N 54°06' E 009°20'6 5.9
2014-Nov-22 10:33N 54°00' E 009°18'7 6.6
2014-Nov-22 09:33N 53°55' E 009°11'2 2.0
2014-Nov-22 08:33N 53°54' E 009°08'1 1.3
2014-Nov-22 07:33N 53°53' E 009°10'1615.6
2014-Nov-22 06:33N 53°42' E 009°30'1413.8
2014-Nov-22 05:33N 53°33' E 009°47'6 5.6
2014-Nov-22 04:31N 53°32' E 009°57'0 0.0
2014-Nov-22 03:31N 53°32' E 009°57'0 0.0
2014-Nov-22 02:31N 53°32' E 009°57'0 0.0
2014-Nov-22 01:31N 53°32' E 009°57'0 0.0
2014-Nov-22 00:32N 53°32' E 009°57'0 0.0
2014-Nov-21 23:29N 53°32' E 009°57'0 0.0
2014-Nov-21 22:29N 53°32' E 009°57'0 0.0
2014-Nov-21 21:33N 53°32' E 009°57'0 0.0
2014-Nov-21 20:33N 53°32' E 009°57'0 0.0
2014-Nov-21 19:32N 53°32' E 009°57'0 0.0
2014-Nov-21 18:31N 53°32' E 009°57'0 0.0
2014-Nov-21 17:31N 53°32' E 009°57'0 0.0
2014-Nov-21 16:30N 53°32' E 009°57'0 0.0
2014-Nov-21 15:31N 53°32' E 009°57'0 0.0
2014-Nov-21 14:31N 53°32' E 009°57'0 0.0
2014-Nov-21 13:31N 53°32' E 009°57'0 0.0
2014-Nov-21 12:31N 53°32' E 009°57'0 0.0
2014-Nov-21 11:31N 53°32' E 009°57'0 0.0
2014-Nov-21 10:31N 53°32' E 009°57'0 0.0
2014-Nov-21 09:31N 53°32' E 009°57'0 0.0
2014-Nov-21 08:31N 53°32' E 009°57'0 0.0
2014-Nov-21 07:33N 53°32' E 009°57'0 0.0
2014-Nov-21 06:29N 53°32' E 009°57'0 0.0
2014-Nov-21 05:32N 53°32' E 009°57'0 0.3
2014-Nov-21 04:34N 53°32' E 009°57'1 1.4
2014-Nov-21 03:33N 53°32' E 009°55'0 0.0
2014-Nov-21 02:33N 53°32' E 009°55'0 0.0
2014-Nov-21 01:33N 53°32' E 009°55'0 0.0
2014-Nov-21 00:33N 53°32' E 009°55'0 0.0
2014-Nov-20 23:33N 53°32' E 009°55'0 0.0
2014-Nov-20 22:33N 53°32' E 009°55'0 0.0
2014-Nov-20 21:33N 53°32' E 009°55'0 0.0
2014-Nov-20 20:33N 53°32' E 009°55'0 0.0
2014-Nov-20 19:33N 53°32' E 009°55'0 0.0
2014-Nov-20 18:27N 53°32' E 009°55'0 0.0
2014-Nov-20 17:31N 53°32' E 009°55'0 0.0
2014-Nov-20 16:30N 53°32' E 009°55'0 0.0
2014-Nov-20 15:29N 53°32' E 009°55'0 0.0
2014-Nov-20 14:30N 53°32' E 009°55'0 0.0
2014-Nov-20 13:29N 53°32' E 009°55'0 0.0
2014-Nov-20 12:29N 53°32' E 009°55'0 0.0
2014-Nov-20 11:29N 53°32' E 009°55'0 0.0
2014-Nov-20 10:32N 53°32' E 009°55'3 2.7
2014-Nov-20 09:33N 53°33' E 009°51'1312.8
2014-Nov-20 08:34N 53°39' E 009°31'1515.2
2014-Nov-20 07:33N 53°52' E 009°18'6 5.6
2014-Nov-20 06:30N 53°54' E 009°09'4 4.6
2014-Nov-20 05:33N 53°57' E 009°14'7 6.9
2014-Nov-20 04:33N 54°03' E 009°18'7 6.5
2014-Nov-20 03:33N 54°09' E 009°22'5 5.4
2014-Nov-20 02:32N 54°11' E 009°31'3 2.8
2014-Nov-20 01:33N 54°13' E 009°35'6 6.2
2014-Nov-20 00:33N 54°18' E 009°42'6 6.3
2014-Nov-19 23:33N 54°22' E 009°50'6 5.8
2014-Nov-19 22:33N 54°21' E 009°59'5 5.4
2014-Nov-19 21:34N 54°22' E 010°09'3 2.5
2014-Nov-19 20:33N 54°24' E 010°12'1110.6
2014-Nov-19 19:33N 54°32' E 010°24'1212.2
2014-Nov-19 18:33N 54°35' E 010°44'2411.6
2014-Nov-19 16:30N 54°32' E 011°25'8 8.9
2014-Nov-19 15:34N 54°28' E 011°38'8 8.1
2014-Nov-19 14:34N 54°26' E 011°51'8 8.4
2014-Nov-19 13:33N 54°26' E 012°06'9 9.0
2014-Nov-19 12:32N 54°34' E 012°15'1211.0
2014-Nov-19 11:26N 54°42' E 012°31'5711.3
2014-Nov-19 06:23N 55°04' E 014°02'911.3
2014-Nov-19 05:33N 55°11' E 014°13'1111.3
2014-Nov-19 04:33N 55°20' E 014°25'1110.8
2014-Nov-19 03:33N 55°28' E 014°39'1211.3
2014-Nov-19 02:30N 55°34' E 014°57'4511.3
2014-Nov-18 22:30N 55°57' E 016°05'1111.4
2014-Nov-18 21:34N 56°02' E 016°22'12212.0
2014-Nov-18 11:20N 57°22' E 019°10'19412.3
2014-Nov-17 19:30N 59°40' E 023°34'1616.8
2014-Nov-17 18:33N 59°44' E 024°04'1716.7
2014-Nov-17 17:33N 59°49' E 024°36'6416.1
2014-Nov-17 13:33N 60°11' E 026°37'1414.0
2014-Nov-17 12:33N 60°22' E 026°52'3 3.4
2014-Nov-17 11:32N 60°25' E 026°55'0 0.0
2014-Nov-17 10:32N 60°25' E 026°55'0 0.0
2014-Nov-17 09:33N 60°25' E 026°55'0 0.0
2014-Nov-17 08:32N 60°25' E 026°55'0 0.0
2014-Nov-17 07:32N 60°25' E 026°55'0 0.0
2014-Nov-17 06:31N 60°25' E 026°55'0 0.0
2014-Nov-17 05:31N 60°25' E 026°55'0 0.0
2014-Nov-17 04:31N 60°25' E 026°55'0 0.0
2014-Nov-17 03:31N 60°25' E 026°55'0 0.0
2014-Nov-17 02:31N 60°25' E 026°55'0 0.0
2014-Nov-17 01:31N 60°25' E 026°55'0 0.0
2014-Nov-17 00:31N 60°25' E 026°55'0 0.0
2014-Nov-16 23:31N 60°25' E 026°55'0 0.0
2014-Nov-16 22:31N 60°25' E 026°55'0 0.0
2014-Nov-16 21:28N 60°25' E 026°55'0 0.0
2014-Nov-16 20:31N 60°25' E 026°55'0 0.0
2014-Nov-16 19:31N 60°25' E 026°55'0 0.0
2014-Nov-16 18:31N 60°25' E 026°55'0 0.0
2014-Nov-16 17:28N 60°25' E 026°55'0 0.0
2014-Nov-16 16:31N 60°25' E 026°55'0 0.0
2014-Nov-16 15:31N 60°25' E 026°55'0 0.0
2014-Nov-16 14:31N 60°25' E 026°55'0 0.0
2014-Nov-16 13:31N 60°25' E 026°55'0 0.0
2014-Nov-16 12:31N 60°25' E 026°55'0 0.0
2014-Nov-16 11:31N 60°25' E 026°55'0 0.0
2014-Nov-16 10:31N 60°25' E 026°55'  
Track history (hours):
 
Tides and Currents Weather Stations Pressure Air Temp Water Temp Dewpoint Dewpoint Depression Visibility Wind Speed Wind Dir Waves Ship Positions

Suederoog

Last reported at 2014-Nov-26 10:31 UTC. Time now 2014-Nov-26 11:15 UTC.
Position N 60°25' E 026°55'.

Length 161 m; draft 9 m.

Type: Cargo ship. MMSI: 236300000.

Date/timePositionNaut miles runAvg speedWind from/ knotsBaromVisibWave heightAir tempDewpointWater temp
2014-Nov-26 10:31N 60°25' E 026°55'0 0.0
2014-Nov-26 09:31N 60°25' E 026°55'0 0.0
2014-Nov-26 08:31N 60°25' E 026°55'0 0.0
2014-Nov-26 07:33N 60°25' E 026°55'8 8.3
2014-Nov-26 06:34N 60°21' E 026°40'1313.2
2014-Nov-26 05:33N 60°11' E 026°23'1110.6
2014-Nov-26 04:33N 60°04' E 026°39'1111.2
2014-Nov-26 03:33N 59°60' E 026°59'9710.5
2014-Nov-25 18:19N 59°54' E 030°13'0 0.0
2014-Nov-25 11:33N 59°54' E 030°14'0 0.0
2014-Nov-25 10:28N 59°54' E 030°14'1 1.1
2014-Nov-25 09:30N 59°53' E 030°12'0 0.0
2014-Nov-25 06:09N 59°53' E 030°12'96 4.4
2014-Nov-24 08:11N 59°58' E 027°00'1218.5
2014-Nov-24 07:33N 59°59' E 026°37'2119.0
2014-Nov-24 06:27N 59°54' E 025°56'3819.0
2014-Nov-24 04:26N 59°45' E 024°42'2218.8
2014-Nov-24 03:15N 59°39' E 023°60'1319.1
2014-Nov-24 02:34N 59°35' E 023°35'37418.7
2014-Nov-23 06:32N 55°28' E 014°52'1918.7
2014-Nov-23 05:30N 55°15' E 014°27'1818.9
2014-Nov-23 04:34N 55°02' E 014°07'7217.9
2014-Nov-23 00:33N 54°31' E 012°15'6516.0
2014-Nov-22 20:30N 54°30' E 010°23'1112.1
2014-Nov-22 19:33N 54°22' E 010°10'3 3.2
2014-Nov-22 18:33N 54°22' E 010°04'5 5.1
2014-Nov-22 17:33N 54°20' E 009°56'5 4.8
2014-Nov-22 16:33N 54°22' E 009°48'6 6.3
2014-Nov-22 15:33N 54°17' E 009°40'5 5.0
2014-Nov-22 14:33N 54°13' E 009°36'3 2.7
2014-Nov-22 13:30N 54°12' E 009°32'9 4.7
2014-Nov-22 11:33N 54°06' E 009°20'6 5.9
2014-Nov-22 10:33N 54°00' E 009°18'7 6.6
2014-Nov-22 09:33N 53°55' E 009°11'2 2.0
2014-Nov-22 08:33N 53°54' E 009°08'1 1.3
2014-Nov-22 07:33N 53°53' E 009°10'1615.6
2014-Nov-22 06:33N 53°42' E 009°30'1413.8
2014-Nov-22 05:33N 53°33' E 009°47'6 5.6
2014-Nov-22 04:31N 53°32' E 009°57'0 0.0
2014-Nov-22 03:31N 53°32' E 009°57'0 0.0
2014-Nov-22 02:31N 53°32' E 009°57'0 0.0
2014-Nov-22 01:31N 53°32' E 009°57'0 0.0
2014-Nov-22 00:32N 53°32' E 009°57'0 0.0
2014-Nov-21 23:29N 53°32' E 009°57'0 0.0
2014-Nov-21 22:29N 53°32' E 009°57'0 0.0
2014-Nov-21 21:33N 53°32' E 009°57'0 0.0
2014-Nov-21 20:33N 53°32' E 009°57'0 0.0
2014-Nov-21 19:32N 53°32' E 009°57'0 0.0
2014-Nov-21 18:31N 53°32' E 009°57'0 0.0
2014-Nov-21 17:31N 53°32' E 009°57'0 0.0
2014-Nov-21 16:30N 53°32' E 009°57'0 0.0
2014-Nov-21 15:31N 53°32' E 009°57'0 0.0
2014-Nov-21 14:31N 53°32' E 009°57'0 0.0
2014-Nov-21 13:31N 53°32' E 009°57'0 0.0
2014-Nov-21 12:31N 53°32' E 009°57'0 0.0
2014-Nov-21 11:31N 53°32' E 009°57'0 0.0
2014-Nov-21 10:31N 53°32' E 009°57'0 0.0
2014-Nov-21 09:31N 53°32' E 009°57'0 0.0
2014-Nov-21 08:31N 53°32' E 009°57'0 0.0
2014-Nov-21 07:33N 53°32' E 009°57'0 0.0
2014-Nov-21 06:29N 53°32' E 009°57'0 0.0
2014-Nov-21 05:32N 53°32' E 009°57'0 0.3
2014-Nov-21 04:34N 53°32' E 009°57'1 1.4
2014-Nov-21 03:33N 53°32' E 009°55'0 0.0
2014-Nov-21 02:33N 53°32' E 009°55'0 0.0
2014-Nov-21 01:33N 53°32' E 009°55'0 0.0
2014-Nov-21 00:33N 53°32' E 009°55'0 0.0
2014-Nov-20 23:33N 53°32' E 009°55'0 0.0
2014-Nov-20 22:33N 53°32' E 009°55'0 0.0
2014-Nov-20 21:33N 53°32' E 009°55'0 0.0
2014-Nov-20 20:33N 53°32' E 009°55'0 0.0
2014-Nov-20 19:33N 53°32' E 009°55'0 0.0
2014-Nov-20 18:27N 53°32' E 009°55'0 0.0
2014-Nov-20 17:31N 53°32' E 009°55'0 0.0
2014-Nov-20 16:30N 53°32' E 009°55'0 0.0
2014-Nov-20 15:29N 53°32' E 009°55'0 0.0
2014-Nov-20 14:30N 53°32' E 009°55'0 0.0
2014-Nov-20 13:29N 53°32' E 009°55'0 0.0
2014-Nov-20 12:29N 53°32' E 009°55'0 0.0
2014-Nov-20 11:29N 53°32' E 009°55'0 0.0
2014-Nov-20 10:32N 53°32' E 009°55'3 2.7
2014-Nov-20 09:33N 53°33' E 009°51'1312.8
2014-Nov-20 08:34N 53°39' E 009°31'1515.2
2014-Nov-20 07:33N 53°52' E 009°18'6 5.6
2014-Nov-20 06:30N 53°54' E 009°09'4 4.6
2014-Nov-20 05:33N 53°57' E 009°14'7 6.9
2014-Nov-20 04:33N 54°03' E 009°18'7 6.5
2014-Nov-20 03:33N 54°09' E 009°22'5 5.4
2014-Nov-20 02:32N 54°11' E 009°31'3 2.8
2014-Nov-20 01:33N 54°13' E 009°35'6 6.2
2014-Nov-20 00:33N 54°18' E 009°42'6 6.3
2014-Nov-19 23:33N 54°22' E 009°50'6 5.8
2014-Nov-19 22:33N 54°21' E 009°59'5 5.4
2014-Nov-19 21:34N 54°22' E 010°09'3 2.5
2014-Nov-19 20:33N 54°24' E 010°12'1110.6
2014-Nov-19 19:33N 54°32' E 010°24'1212.2
2014-Nov-19 18:33N 54°35' E 010°44'2411.6
2014-Nov-19 16:30N 54°32' E 011°25'8 8.9
2014-Nov-19 15:34N 54°28' E 011°38'8 8.1
2014-Nov-19 14:34N 54°26' E 011°51'8 8.4
2014-Nov-19 13:33N 54°26' E 012°06'9 9.0
2014-Nov-19 12:32N 54°34' E 012°15'1211.0
2014-Nov-19 11:26N 54°42' E 012°31'5711.3
2014-Nov-19 06:23N 55°04' E 014°02'911.3
2014-Nov-19 05:33N 55°11' E 014°13'1111.3
2014-Nov-19 04:33N 55°20' E 014°25'1110.8
2014-Nov-19 03:33N 55°28' E 014°39'1211.3
2014-Nov-19 02:30N 55°34' E 014°57'4511.3
2014-Nov-18 22:30N 55°57' E 016°05'1111.4
2014-Nov-18 21:34N 56°02' E 016°22'12212.0
2014-Nov-18 11:20N 57°22' E 019°10'19412.3
2014-Nov-17 19:30N 59°40' E 023°34'1616.8
2014-Nov-17 18:33N 59°44' E 024°04'1716.7
2014-Nov-17 17:33N 59°49' E 024°36'6416.1
2014-Nov-17 13:33N 60°11' E 026°37'1414.0
2014-Nov-17 12:33N 60°22' E 026°52'3 3.4
2014-Nov-17 11:32N 60°25' E 026°55'0 0.0
2014-Nov-17 10:32N 60°25' E 026°55'0 0.0
2014-Nov-17 09:33N 60°25' E 026°55'0 0.0
2014-Nov-17 08:32N 60°25' E 026°55'0 0.0
2014-Nov-17 07:32N 60°25' E 026°55'0 0.0
2014-Nov-17 06:31N 60°25' E 026°55'0 0.0
2014-Nov-17 05:31N 60°25' E 026°55'0 0.0
2014-Nov-17 04:31N 60°25' E 026°55'0 0.0
2014-Nov-17 03:31N 60°25' E 026°55'0 0.0
2014-Nov-17 02:31N 60°25' E 026°55'0 0.0
2014-Nov-17 01:31N 60°25' E 026°55'0 0.0
2014-Nov-17 00:31N 60°25' E 026°55'0 0.0
2014-Nov-16 23:31N 60°25' E 026°55'0 0.0
2014-Nov-16 22:31N 60°25' E 026°55'0 0.0
2014-Nov-16 21:28N 60°25' E 026°55'0 0.0
2014-Nov-16 20:31N 60°25' E 026°55'0 0.0
2014-Nov-16 19:31N 60°25' E 026°55'0 0.0
2014-Nov-16 18:31N 60°25' E 026°55'0 0.0
2014-Nov-16 17:28N 60°25' E 026°55'0 0.0
2014-Nov-16 16:31N 60°25' E 026°55'0 0.0
2014-Nov-16 15:31N 60°25' E 026°55'0 0.0
2014-Nov-16 14:31N 60°25' E 026°55'0 0.0
2014-Nov-16 13:31N 60°25' E 026°55'0 0.0
2014-Nov-16 12:31N 60°25' E 026°55'0 0.0
2014-Nov-16 11:31N 60°25' E 026°55'0 0.0
2014-Nov-16 10:31N 60°25' E 026°55'  

Dump ship's entire track history